createdAt,value
2022-12-05T00:00:21.791Z,19.29
2022-12-05T00:01:53.252Z,19.41
2022-12-05T00:03:24.412Z,19.43
2022-12-05T00:04:55.761Z,19.14
2022-12-05T00:06:27.306Z,19.95
2022-12-05T00:07:58.636Z,19.62
2022-12-05T00:09:30.024Z,19.25
2022-12-05T00:11:01.407Z,18.97
2022-12-05T00:12:32.709Z,19.41
2022-12-05T00:14:04.005Z,19.97
2022-12-05T00:15:35.469Z,19.42
2022-12-05T00:17:06.685Z,18.60
2022-12-05T00:18:37.962Z,17.48
2022-12-05T00:20:09.161Z,18.84
2022-12-05T00:21:40.330Z,19.67
2022-12-05T00:23:11.844Z,19.77
2022-12-05T00:24:43.259Z,19.03
2022-12-05T00:26:14.623Z,19.25
2022-12-05T00:27:45.936Z,19.71
2022-12-05T00:29:17.127Z,20.02
2022-12-05T00:30:48.653Z,19.85
2022-12-05T00:32:19.944Z,20.16
2022-12-05T00:33:51.174Z,19.53
2022-12-05T00:35:22.392Z,19.76
2022-12-05T00:36:53.713Z,19.67
2022-12-05T00:38:25.058Z,19.55
2022-12-05T00:39:56.615Z,19.43
2022-12-05T00:41:28.007Z,19.31
2022-12-05T00:42:59.404Z,19.21
2022-12-05T00:44:30.943Z,19.55
2022-12-05T00:46:02.534Z,18.86
2022-12-05T00:47:33.799Z,19.84
2022-12-05T00:49:05.274Z,18.54
2022-12-05T00:50:36.526Z,19.10
2022-12-05T00:52:08.514Z,19.32
2022-12-05T00:53:39.684Z,19.06
2022-12-05T00:55:10.959Z,19.16
2022-12-05T00:56:42.103Z,19.40
2022-12-05T00:58:13.402Z,18.95
2022-12-05T00:59:44.965Z,19.37
2022-12-05T01:01:16.369Z,19.42
2022-12-05T01:02:47.639Z,19.33
2022-12-05T01:04:18.869Z,19.30
2022-12-05T01:05:50.064Z,19.49
2022-12-05T01:07:21.376Z,19.29
2022-12-05T01:08:52.735Z,19.74
2022-12-05T01:10:23.970Z,19.33
2022-12-05T01:11:55.213Z,19.25
2022-12-05T01:13:26.465Z,19.14
2022-12-05T01:14:57.808Z,18.89
2022-12-05T01:16:29.355Z,19.38
2022-12-05T01:18:01.060Z,19.57
2022-12-05T01:19:32.632Z,19.80
2022-12-05T01:21:03.925Z,19.36
2022-12-05T01:22:35.156Z,18.90
2022-12-05T01:24:06.639Z,19.20
2022-12-05T01:25:37.811Z,19.81
2022-12-05T01:27:09.126Z,20.09
2022-12-05T01:28:40.810Z,19.08
2022-12-05T01:30:12.051Z,19.25
2022-12-05T01:31:43.647Z,18.39
2022-12-05T01:33:15.249Z,17.77
2022-12-05T01:34:46.564Z,19.42
2022-12-05T01:36:17.789Z,20.05
2022-12-05T01:37:49.199Z,19.49
2022-12-05T01:39:20.570Z,19.55
2022-12-05T01:40:51.781Z,18.97
2022-12-05T01:42:26.136Z,19.08
2022-12-05T01:43:58.194Z,19.13
2022-12-05T01:45:29.681Z,19.47
2022-12-05T01:47:01.282Z,18.32
2022-12-05T01:48:32.475Z,18.82
2022-12-05T01:50:04.068Z,19.53
2022-12-05T01:51:35.402Z,19.20
2022-12-05T01:53:06.621Z,18.73
2022-12-05T01:54:38.379Z,19.35
2022-12-05T01:56:09.706Z,19.61
2022-12-05T01:57:40.947Z,18.88
2022-12-05T01:59:12.157Z,18.95
2022-12-05T02:00:43.474Z,18.68
2022-12-05T02:02:14.669Z,17.66
2022-12-05T02:03:46.097Z,17.61
2022-12-05T02:05:17.375Z,18.40
2022-12-05T02:06:48.919Z,18.70
2022-12-05T02:08:20.274Z,18.18
2022-12-05T02:09:51.847Z,18.54
2022-12-05T02:11:23.770Z,18.95
2022-12-05T02:12:55.083Z,18.24
2022-12-05T02:14:26.543Z,18.56
2022-12-05T02:15:57.769Z,17.50
2022-12-05T02:17:29.217Z,18.50
2022-12-05T02:19:00.561Z,18.37
2022-12-05T02:20:31.788Z,19.16
2022-12-05T02:22:03.208Z,18.70
2022-12-05T02:23:34.550Z,19.08
2022-12-05T02:25:05.851Z,18.86
2022-12-05T02:26:37.014Z,18.70
2022-12-05T02:28:13.211Z,18.40
2022-12-05T02:29:44.864Z,18.74
2022-12-05T02:31:16.270Z,19.40
2022-12-05T02:32:47.538Z,17.83
2022-12-05T02:34:18.860Z,17.64
2022-12-05T02:35:50.283Z,18.60
2022-12-05T02:37:22.763Z,18.58
2022-12-05T02:38:54.166Z,19.10
2022-12-05T02:40:25.600Z,18.54
2022-12-05T02:41:56.972Z,19.59
2022-12-05T02:43:28.132Z,19.09
2022-12-05T02:45:00.194Z,18.85
2022-12-05T02:46:31.697Z,19.04
2022-12-05T02:48:03.126Z,18.61
2022-12-05T02:49:34.286Z,19.01
2022-12-05T02:51:05.596Z,18.57
2022-12-05T02:52:37.117Z,18.85
2022-12-05T02:54:08.416Z,19.29
2022-12-05T02:55:39.631Z,18.24
2022-12-05T02:57:10.901Z,17.59
2022-12-05T02:58:42.848Z,17.75
2022-12-05T03:00:14.048Z,18.67
2022-12-05T03:01:45.253Z,18.58
2022-12-05T03:03:16.594Z,18.85
2022-12-05T03:04:47.749Z,19.27
2022-12-05T03:06:19.165Z,19.76
2022-12-05T03:07:51.503Z,19.43
2022-12-05T03:09:22.707Z,18.67
2022-12-05T03:10:53.934Z,18.57
2022-12-05T03:12:25.394Z,18.90
2022-12-05T03:13:56.813Z,19.33
2022-12-05T03:15:28.028Z,19.29
2022-12-05T03:16:59.527Z,18.75
2022-12-05T03:18:30.958Z,19.30
2022-12-05T03:20:02.236Z,18.67
2022-12-05T03:21:33.559Z,18.78
2022-12-05T03:23:04.974Z,18.71
2022-12-05T03:24:36.197Z,18.02
2022-12-05T03:26:07.686Z,18.46
2022-12-05T03:27:38.835Z,18.59
2022-12-05T03:29:10.037Z,18.74
2022-12-05T03:30:41.407Z,19.00
2022-12-05T03:32:12.741Z,19.34
2022-12-05T03:33:44.289Z,19.73
2022-12-05T03:35:15.569Z,18.81
2022-12-05T03:36:46.943Z,18.86
2022-12-05T03:38:18.251Z,18.87
2022-12-05T03:39:49.809Z,18.79
2022-12-05T03:41:22.656Z,19.44
2022-12-05T03:42:54.095Z,18.78
2022-12-05T03:44:25.333Z,19.01
2022-12-05T03:45:56.610Z,19.16
2022-12-05T03:47:27.934Z,18.77
2022-12-05T03:48:59.313Z,19.10
2022-12-05T03:50:31.845Z,18.86
2022-12-05T03:52:03.153Z,19.07
2022-12-05T03:53:34.299Z,19.50
2022-12-05T03:55:05.655Z,19.05
2022-12-05T03:56:36.907Z,19.28
2022-12-05T03:58:08.622Z,19.04
2022-12-05T03:59:40.143Z,18.48
2022-12-05T04:01:11.625Z,19.25
2022-12-05T04:02:42.919Z,18.88
2022-12-05T04:04:14.103Z,18.75
2022-12-05T04:05:45.220Z,18.61
2022-12-05T04:07:16.371Z,18.58
2022-12-05T04:08:47.667Z,18.64
2022-12-05T04:10:19.110Z,18.91
2022-12-05T04:11:50.434Z,19.37
2022-12-05T04:13:21.607Z,19.35
2022-12-05T04:14:53.158Z,18.82
2022-12-05T04:16:24.615Z,18.15
2022-12-05T04:17:56.077Z,18.29
2022-12-05T04:19:27.507Z,18.92
2022-12-05T04:20:59.100Z,18.44
2022-12-05T04:22:30.236Z,19.19
2022-12-05T04:24:01.607Z,18.83
2022-12-05T04:25:32.735Z,18.50
2022-12-05T04:27:03.865Z,18.36
2022-12-05T04:28:35.086Z,17.97
2022-12-05T04:30:06.875Z,18.76
2022-12-05T04:31:38.260Z,18.07
2022-12-05T04:33:10.657Z,17.85
2022-12-05T04:34:41.952Z,18.25
2022-12-05T04:36:13.081Z,17.86
2022-12-05T04:37:44.292Z,18.34
2022-12-05T04:39:18.238Z,17.83
2022-12-05T04:40:49.643Z,17.96
2022-12-05T04:42:20.892Z,17.43
2022-12-05T04:43:52.099Z,18.35
2022-12-05T04:45:23.233Z,18.29
2022-12-05T04:46:54.565Z,18.25
2022-12-05T04:48:26.058Z,17.52
2022-12-05T04:49:57.606Z,17.79
2022-12-05T04:51:29.027Z,17.73
2022-12-05T04:53:00.479Z,17.19
2022-12-05T04:54:31.773Z,17.12
2022-12-05T04:56:02.944Z,16.62
2022-12-05T04:57:34.184Z,16.76
2022-12-05T04:59:05.619Z,17.53
2022-12-05T05:00:36.843Z,17.71
2022-12-05T05:02:08.466Z,17.70
2022-12-05T05:03:39.844Z,16.95
2022-12-05T05:05:13.924Z,17.31
2022-12-05T05:06:45.563Z,17.20
2022-12-05T05:08:16.802Z,18.03
2022-12-05T05:09:48.098Z,17.29
2022-12-05T05:11:19.440Z,17.08
2022-12-05T05:12:50.867Z,16.83
2022-12-05T05:14:22.302Z,16.92
2022-12-05T05:15:53.693Z,17.26
2022-12-05T05:17:25.362Z,17.25
2022-12-05T05:18:56.598Z,16.74
2022-12-05T05:20:27.882Z,17.21
2022-12-05T05:21:59.040Z,17.71
2022-12-05T05:23:30.287Z,17.70
2022-12-05T05:25:01.605Z,16.29
2022-12-05T05:26:33.140Z,15.98
2022-12-05T05:28:04.360Z,17.00
2022-12-05T05:29:35.527Z,17.10
2022-12-05T05:31:06.930Z,17.24
2022-12-05T05:32:38.303Z,16.89
2022-12-05T05:34:10.167Z,16.58
2022-12-05T05:35:41.470Z,16.68
2022-12-05T05:37:12.991Z,17.03
2022-12-05T05:38:44.168Z,16.68
2022-12-05T05:40:15.463Z,16.86
2022-12-05T05:41:46.801Z,17.10
2022-12-05T05:43:18.042Z,17.02
2022-12-05T05:44:54.671Z,17.28
2022-12-05T05:46:26.442Z,16.84
2022-12-05T05:47:57.858Z,16.67
2022-12-05T05:49:29.186Z,15.86
2022-12-05T05:51:00.593Z,15.72
2022-12-05T05:52:31.935Z,15.44
2022-12-05T05:54:03.161Z,15.61
2022-12-05T05:55:34.628Z,16.57
2022-12-05T05:57:05.811Z,16.32
2022-12-05T05:58:37.002Z,16.72
2022-12-05T06:00:08.273Z,16.26
2022-12-05T06:01:39.537Z,16.18
2022-12-05T06:03:10.885Z,16.89
2022-12-05T06:04:42.259Z,16.44
2022-12-05T06:06:13.456Z,16.43
2022-12-05T06:07:44.713Z,16.52
2022-12-05T06:09:16.164Z,16.87
2022-12-05T06:10:47.404Z,17.20
2022-12-05T06:12:20.912Z,16.77
2022-12-05T06:13:52.438Z,16.72
2022-12-05T06:15:23.674Z,16.48
2022-12-05T06:16:55.156Z,16.73
2022-12-05T06:18:26.426Z,15.74
2022-12-05T06:19:58.500Z,16.06
2022-12-05T06:21:30.048Z,16.59
2022-12-05T06:23:01.771Z,16.54
2022-12-05T06:24:33.108Z,16.48
2022-12-05T06:26:04.593Z,15.78
2022-12-05T06:27:35.865Z,16.36
2022-12-05T06:29:07.103Z,15.49
2022-12-05T06:30:38.510Z,15.42
2022-12-05T06:32:09.712Z,15.40
2022-12-05T06:33:41.020Z,15.39
2022-12-05T06:35:12.448Z,15.56
2022-12-05T06:36:43.696Z,15.92
2022-12-05T06:38:14.916Z,15.09
2022-12-05T06:39:51.465Z,15.45
2022-12-05T06:41:22.769Z,16.02
2022-12-05T06:42:54.292Z,15.54
2022-12-05T06:44:25.933Z,15.90
2022-12-05T06:45:57.314Z,15.62
2022-12-05T06:47:28.886Z,15.71
2022-12-05T06:49:05.130Z,16.12
2022-12-05T06:50:36.421Z,15.53
2022-12-05T06:52:17.566Z,15.87
2022-12-05T06:53:48.905Z,16.08
2022-12-05T06:55:20.146Z,15.39
2022-12-05T06:56:51.355Z,15.22
2022-12-05T06:58:22.817Z,15.52
2022-12-05T06:59:54.118Z,15.84
2022-12-05T07:01:25.543Z,14.63
2022-12-05T07:02:56.849Z,14.37
2022-12-05T07:04:28.077Z,14.17
2022-12-05T07:05:59.307Z,14.21
2022-12-05T07:07:30.624Z,14.13
2022-12-05T07:09:02.335Z,13.90
2022-12-05T07:10:33.556Z,13.68
2022-12-05T07:12:04.679Z,13.99
2022-12-05T07:13:35.934Z,13.60
2022-12-05T07:15:07.228Z,12.99
2022-12-05T07:16:38.589Z,13.14
2022-12-05T07:18:10.171Z,13.87
2022-12-05T07:19:41.499Z,13.59
2022-12-05T07:21:13.635Z,13.94
2022-12-05T07:22:45.432Z,13.44
2022-12-05T07:24:16.636Z,13.65
2022-12-05T07:25:47.955Z,13.63
2022-12-05T07:27:25.039Z,13.53
2022-12-05T07:28:58.400Z,12.76
2022-12-05T07:30:29.710Z,13.30
2022-12-05T07:32:01.076Z,13.42
2022-12-05T07:33:32.392Z,13.82
2022-12-05T07:35:03.689Z,13.16
2022-12-05T07:36:35.138Z,13.34
2022-12-05T07:38:06.506Z,13.28
2022-12-05T07:39:37.943Z,13.62
2022-12-05T07:41:13.345Z,14.18
2022-12-05T07:42:44.930Z,13.79
2022-12-05T07:44:16.174Z,13.74
2022-12-05T07:45:47.491Z,14.60
2022-12-05T07:47:19.147Z,14.00
2022-12-05T07:48:50.520Z,18.83
2022-12-05T07:50:23.314Z,14.35
2022-12-05T07:51:54.719Z,14.51
2022-12-05T07:53:26.060Z,14.44
2022-12-05T07:54:57.952Z,15.13
2022-12-05T07:56:29.256Z,14.22
2022-12-05T07:58:00.767Z,16.16
2022-12-05T07:59:32.352Z,15.31
2022-12-05T08:01:03.751Z,16.36
2022-12-05T08:02:40.313Z,14.91
2022-12-05T08:04:15.484Z,15.08
2022-12-05T08:05:47.202Z,14.86
2022-12-05T08:07:18.423Z,15.48
2022-12-05T08:08:49.983Z,14.88
2022-12-05T08:10:21.403Z,14.99
2022-12-05T08:11:53.026Z,15.00
2022-12-05T08:13:24.408Z,14.92
2022-12-05T08:14:55.926Z,15.48
2022-12-05T08:16:27.381Z,14.75
2022-12-05T08:17:58.928Z,15.07
2022-12-05T08:19:30.285Z,16.09
2022-12-05T08:21:01.482Z,14.98
2022-12-05T08:22:33.590Z,14.50
2022-12-05T08:24:05.035Z,14.83
2022-12-05T08:25:36.526Z,14.57
2022-12-05T08:27:07.886Z,14.47
2022-12-05T08:28:39.075Z,14.83
2022-12-05T08:30:10.388Z,14.57
2022-12-05T08:31:41.691Z,14.71
2022-12-05T08:33:13.195Z,14.80
2022-12-05T08:34:44.958Z,13.99
2022-12-05T08:36:16.346Z,13.55
2022-12-05T08:37:47.572Z,14.41
2022-12-05T08:39:18.847Z,13.61
2022-12-05T08:40:50.494Z,13.35
2022-12-05T08:42:23.779Z,13.76
2022-12-05T08:43:55.561Z,13.69
2022-12-05T08:45:27.105Z,13.69
2022-12-05T08:46:58.386Z,13.92
2022-12-05T08:48:29.998Z,14.25
2022-12-05T08:50:01.634Z,13.57
2022-12-05T08:51:33.213Z,13.32
2022-12-05T08:53:04.699Z,13.16
2022-12-05T08:54:36.035Z,13.31
2022-12-05T08:56:07.336Z,13.33
2022-12-05T08:57:38.643Z,13.51
2022-12-05T08:59:10.169Z,13.72
2022-12-05T09:00:41.603Z,14.40
2022-12-05T09:02:12.986Z,13.96
2022-12-05T09:03:47.762Z,14.39
2022-12-05T09:05:28.133Z,13.95
2022-12-05T09:07:00.292Z,14.37
2022-12-05T09:08:31.580Z,15.56
2022-12-05T09:10:03.061Z,15.15
2022-12-05T09:11:39.359Z,15.03
2022-12-05T09:13:10.636Z,14.61
2022-12-05T09:14:41.873Z,22.81
2022-12-05T09:16:13.319Z,16.66
2022-12-05T09:17:59.769Z,15.34
2022-12-05T09:19:31.076Z,14.64
2022-12-05T09:21:02.254Z,14.56
2022-12-05T09:22:33.709Z,14.47
2022-12-05T09:24:05.079Z,14.52
2022-12-05T09:25:36.286Z,14.48
2022-12-05T09:27:07.884Z,14.62
2022-12-05T09:28:39.435Z,16.16
2022-12-05T09:30:10.796Z,15.67
2022-12-05T09:31:42.345Z,15.68
2022-12-05T09:33:13.732Z,18.94
2022-12-05T09:34:44.977Z,18.69
2022-12-05T09:36:16.182Z,20.31
2022-12-05T09:37:47.529Z,22.00
2022-12-05T09:39:18.735Z,22.23
2022-12-05T09:40:50.147Z,21.30
2022-12-05T09:42:21.344Z,20.45
2022-12-05T09:43:52.978Z,20.33
2022-12-05T09:45:24.276Z,19.09
2022-12-05T09:46:56.048Z,18.26
2022-12-05T09:48:27.504Z,17.81
2022-12-05T09:49:58.879Z,16.34
2022-12-05T09:51:30.201Z,14.43
2022-12-05T09:53:01.631Z,13.26
2022-12-05T09:54:32.829Z,13.33
2022-12-05T09:56:04.067Z,13.52
2022-12-05T09:57:35.509Z,13.39
2022-12-05T09:59:16.926Z,12.78
2022-12-05T10:00:48.228Z,13.08
2022-12-05T10:02:20.727Z,12.83
2022-12-05T10:03:52.038Z,13.36
2022-12-05T10:05:23.441Z,13.15
2022-12-05T10:06:55.148Z,13.24
2022-12-05T10:08:26.519Z,12.79
2022-12-05T10:09:58.152Z,12.77
2022-12-05T10:11:29.703Z,12.57
2022-12-05T10:13:01.055Z,12.25
2022-12-05T10:14:32.608Z,12.05
2022-12-05T10:16:03.994Z,12.26
2022-12-05T10:17:35.474Z,12.65
2022-12-05T10:19:06.872Z,12.48
2022-12-05T10:20:38.187Z,11.39
2022-12-05T10:22:09.709Z,11.00
2022-12-05T10:23:56.988Z,11.55
2022-12-05T10:26:01.194Z,11.22
2022-12-05T10:27:39.590Z,11.36
2022-12-05T10:29:11.852Z,11.67
2022-12-05T10:30:43.784Z,11.93
2022-12-05T10:32:15.784Z,12.09
2022-12-05T10:33:47.146Z,13.34
2022-12-05T10:35:18.569Z,13.97
2022-12-05T10:36:50.188Z,14.49
2022-12-05T10:38:31.486Z,14.84
2022-12-05T10:40:02.706Z,15.31
2022-12-05T10:41:34.362Z,15.25
2022-12-05T10:43:06.132Z,15.78
2022-12-05T10:44:50.416Z,16.97
2022-12-05T10:46:21.668Z,17.05
2022-12-05T10:47:53.081Z,16.86
2022-12-05T10:49:24.582Z,17.82
2022-12-05T10:50:56.017Z,17.44
2022-12-05T10:52:27.287Z,17.23
2022-12-05T10:53:58.634Z,17.50
2022-12-05T10:55:29.809Z,17.61
2022-12-05T10:57:01.018Z,17.70
2022-12-05T10:58:32.366Z,18.37
2022-12-05T11:00:03.632Z,18.69
2022-12-05T11:01:35.017Z,18.35
2022-12-05T11:03:07.133Z,18.08
2022-12-05T11:04:38.827Z,17.82
2022-12-05T11:06:20.307Z,17.44
2022-12-05T11:07:51.659Z,17.61
2022-12-05T11:09:23.216Z,16.88
2022-12-05T11:10:54.606Z,17.24
2022-12-05T11:12:26.009Z,16.53
2022-12-05T11:13:57.295Z,16.53
2022-12-05T11:15:28.470Z,16.41
2022-12-05T11:16:59.704Z,15.97
2022-12-05T11:18:30.882Z,16.36
2022-12-05T11:20:02.304Z,16.25
2022-12-05T11:21:33.472Z,16.21
2022-12-05T11:23:14.909Z,17.69
2022-12-05T11:25:05.276Z,17.36
2022-12-05T11:26:36.664Z,17.08
2022-12-05T11:28:08.345Z,16.01
2022-12-05T11:29:40.181Z,14.90
2022-12-05T11:31:11.528Z,16.05
2022-12-05T11:32:43.020Z,16.27
2022-12-05T11:34:14.415Z,16.02
2022-12-05T11:35:46.078Z,15.66
2022-12-05T11:37:17.539Z,15.66
2022-12-05T11:38:48.884Z,14.75
2022-12-05T11:40:23.955Z,15.09
2022-12-05T11:41:59.463Z,15.47
2022-12-05T11:43:56.040Z,15.51
2022-12-05T11:45:27.382Z,14.83
2022-12-05T11:46:58.890Z,14.70
2022-12-05T11:48:30.063Z,14.18
2022-12-05T11:50:01.498Z,15.42
2022-12-05T11:51:33.150Z,15.90
2022-12-05T11:53:04.732Z,15.52
2022-12-05T11:55:03.896Z,15.26
2022-12-05T11:56:36.606Z,16.13
2022-12-05T11:58:07.745Z,16.11
2022-12-05T11:59:38.941Z,16.51
2022-12-05T12:01:11.535Z,17.29
2022-12-05T12:02:43.056Z,17.09
2022-12-05T12:04:14.424Z,18.02
2022-12-05T12:05:45.767Z,17.49
2022-12-05T12:07:17.197Z,17.25
2022-12-05T12:08:48.348Z,17.36
2022-12-05T12:10:19.728Z,17.12
2022-12-05T12:11:51.309Z,17.06
2022-12-05T12:13:23.883Z,17.18
2022-12-05T12:14:55.350Z,17.72
2022-12-05T12:16:28.775Z,17.61
2022-12-05T12:18:00.358Z,17.38
2022-12-05T12:19:31.656Z,17.70
2022-12-05T12:21:02.984Z,17.69
2022-12-05T12:22:34.541Z,17.75
2022-12-05T12:24:05.637Z,17.35
2022-12-05T12:25:36.973Z,17.22
2022-12-05T12:27:08.323Z,17.05
2022-12-05T12:28:39.776Z,16.97
2022-12-05T12:30:11.039Z,16.72
2022-12-05T12:31:42.624Z,17.11
2022-12-05T12:33:13.772Z,17.41
2022-12-05T12:34:44.897Z,18.15
2022-12-05T12:36:16.065Z,17.70
2022-12-05T12:37:47.323Z,18.32
2022-12-05T12:40:22.692Z,17.75
2022-12-05T12:41:53.965Z,17.41
2022-12-05T12:43:52.165Z,17.53
2022-12-05T12:45:25.204Z,17.89
2022-12-05T12:46:56.713Z,17.17
2022-12-05T12:48:27.990Z,17.59
2022-12-05T12:49:59.433Z,17.18
2022-12-05T12:51:30.566Z,17.38
2022-12-05T12:53:02.074Z,17.30
2022-12-05T12:55:03.404Z,17.36
2022-12-05T12:56:37.520Z,16.77
2022-12-05T12:58:08.888Z,17.17
2022-12-05T12:59:40.421Z,17.38
2022-12-05T13:01:11.813Z,17.35
2022-12-05T13:02:43.322Z,17.58
2022-12-05T13:04:14.525Z,18.81
2022-12-05T13:05:46.137Z,19.39
2022-12-05T13:07:17.475Z,20.13
2022-12-05T13:08:48.918Z,20.61
2022-12-05T13:10:20.279Z,22.17
2022-12-05T13:11:51.624Z,22.66
2022-12-05T13:13:22.909Z,21.67
2022-12-05T13:14:54.408Z,20.89
2022-12-05T13:16:25.950Z,21.42
2022-12-05T13:17:57.326Z,21.61
2022-12-05T13:19:28.875Z,20.75
2022-12-05T13:21:00.368Z,19.53
2022-12-05T13:22:31.616Z,19.49
2022-12-05T13:24:03.081Z,18.88
2022-12-05T13:25:34.598Z,19.02
2022-12-05T13:27:05.826Z,17.65
2022-12-05T13:28:37.049Z,17.70
2022-12-05T13:30:13.585Z,17.43
2022-12-05T13:31:45.462Z,16.77
2022-12-05T13:33:16.710Z,17.31
2022-12-05T13:34:47.932Z,17.33
2022-12-05T13:36:19.415Z,18.05
2022-12-05T13:37:50.758Z,20.76
2022-12-05T13:39:22.002Z,19.06
2022-12-05T13:40:53.342Z,19.04
2022-12-05T13:42:24.633Z,19.91
2022-12-05T13:44:05.863Z,20.28
2022-12-05T13:45:38.085Z,19.38
2022-12-05T13:47:09.481Z,18.44
2022-12-05T13:48:40.757Z,19.33
2022-12-05T13:50:12.116Z,26.32
2022-12-05T13:51:43.430Z,26.88
2022-12-05T13:53:14.800Z,27.69
2022-12-05T13:54:46.199Z,26.05
2022-12-05T13:56:17.552Z,25.61
2022-12-05T13:57:48.796Z,24.58
2022-12-05T13:59:20.103Z,25.09
2022-12-05T14:00:51.359Z,22.02
2022-12-05T14:02:23.251Z,21.71
2022-12-05T14:03:54.721Z,21.84
2022-12-05T14:05:27.169Z,21.40
2022-12-05T14:06:58.687Z,19.94
2022-12-05T14:08:30.235Z,19.32
2022-12-05T14:10:01.675Z,18.21
2022-12-05T14:11:33.218Z,18.25
2022-12-05T14:13:04.593Z,18.47
2022-12-05T14:14:35.896Z,19.86
2022-12-05T14:16:07.418Z,21.36
2022-12-05T14:17:38.681Z,22.10
2022-12-05T14:19:09.956Z,21.38
2022-12-05T14:20:41.299Z,21.13
2022-12-05T14:22:12.456Z,21.46
2022-12-05T14:23:43.962Z,19.83
2022-12-05T14:25:15.479Z,18.69
2022-12-05T14:26:46.720Z,18.65
2022-12-05T14:28:18.040Z,19.84
2022-12-05T14:29:49.549Z,23.33
2022-12-05T14:31:21.123Z,25.01
2022-12-05T14:32:52.747Z,25.42
2022-12-05T14:34:24.221Z,26.28
2022-12-05T14:35:55.550Z,30.26
2022-12-05T14:37:26.884Z,30.80
2022-12-05T14:38:58.091Z,30.50
2022-12-05T14:40:29.439Z,28.21
2022-12-05T14:42:02.248Z,29.21
2022-12-05T14:43:33.395Z,26.90
2022-12-05T14:45:04.790Z,22.89
2022-12-05T14:46:36.332Z,21.54
2022-12-05T14:48:07.639Z,19.87
2022-12-05T14:49:40.743Z,17.11
2022-12-05T14:51:15.470Z,16.86
2022-12-05T14:52:46.882Z,16.39
2022-12-05T14:54:18.289Z,16.76
2022-12-05T14:55:49.606Z,16.96
2022-12-05T14:57:20.879Z,17.39
2022-12-05T14:58:52.160Z,16.86
2022-12-05T15:00:23.396Z,17.54
2022-12-05T15:01:55.040Z,17.73
2022-12-05T15:03:26.341Z,18.73
2022-12-05T15:04:57.782Z,17.66
2022-12-05T15:06:29.237Z,17.71
2022-12-05T15:08:01.166Z,17.39
2022-12-05T15:09:37.365Z,16.91
2022-12-05T15:11:09.530Z,16.71
2022-12-05T15:12:41.127Z,17.93
2022-12-05T15:14:12.595Z,16.59
2022-12-05T15:15:44.148Z,17.00
2022-12-05T15:17:15.707Z,16.35
2022-12-05T15:18:47.001Z,16.20
2022-12-05T15:20:18.308Z,16.10
2022-12-05T15:21:49.504Z,15.67
2022-12-05T15:23:20.682Z,15.44
2022-12-05T15:24:52.061Z,15.05
2022-12-05T15:26:46.180Z,15.03
2022-12-05T15:28:18.783Z,16.14
2022-12-05T15:29:50.308Z,15.52
2022-12-05T15:31:21.601Z,16.16
2022-12-05T15:32:59.049Z,15.70
2022-12-05T15:34:30.931Z,15.10
2022-12-05T15:36:02.493Z,15.73
2022-12-05T15:37:33.853Z,15.74
2022-12-05T15:39:05.297Z,14.94
2022-12-05T15:40:36.615Z,25.50
2022-12-05T15:42:08.066Z,22.82
2022-12-05T15:43:39.807Z,18.32
2022-12-05T15:45:11.103Z,23.91
2022-12-05T15:46:42.387Z,21.09
2022-12-05T15:48:17.245Z,16.73
2022-12-05T15:49:52.887Z,15.58
2022-12-05T15:51:24.272Z,15.55
2022-12-05T15:52:55.580Z,15.04
2022-12-05T15:54:29.148Z,15.16
2022-12-05T15:56:00.647Z,15.05
2022-12-05T15:57:31.931Z,14.42
2022-12-05T15:59:03.199Z,15.01
2022-12-05T16:00:34.478Z,15.21
2022-12-05T16:02:06.052Z,14.90
2022-12-05T16:03:37.376Z,15.92
2022-12-05T16:05:08.813Z,15.98
2022-12-05T16:06:50.993Z,15.90
2022-12-05T16:08:22.464Z,16.07
2022-12-05T16:09:53.816Z,15.81
2022-12-05T16:11:25.230Z,15.62
2022-12-05T16:12:57.362Z,15.10
2022-12-05T16:14:58.465Z,14.54
2022-12-05T16:16:31.259Z,14.67
2022-12-05T16:18:02.657Z,14.57
2022-12-05T16:19:33.948Z,14.81
2022-12-05T16:21:05.328Z,14.65
2022-12-05T16:22:36.603Z,15.49
2022-12-05T16:24:08.108Z,15.40
2022-12-05T16:25:44.309Z,16.10
2022-12-05T16:27:20.702Z,16.35
2022-12-05T16:28:52.135Z,16.04
2022-12-05T16:30:23.338Z,16.65
2022-12-05T16:31:55.045Z,16.54
2022-12-05T16:33:26.586Z,16.14
2022-12-05T16:35:02.993Z,17.11
2022-12-05T16:36:34.412Z,17.85
2022-12-05T16:38:05.893Z,17.61
2022-12-05T16:39:37.502Z,17.45
2022-12-05T16:41:08.841Z,17.09
2022-12-05T16:42:40.688Z,17.89
2022-12-05T16:44:18.616Z,17.31
2022-12-05T16:46:13.336Z,17.06
2022-12-05T16:47:45.147Z,17.47
2022-12-05T16:49:16.704Z,16.88
2022-12-05T16:51:08.372Z,16.81
2022-12-05T16:52:53.302Z,16.43
2022-12-05T16:54:24.738Z,16.12
2022-12-05T16:56:06.350Z,16.23
2022-12-05T16:57:38.389Z,16.82
2022-12-05T16:59:09.984Z,17.13
2022-12-05T17:00:41.381Z,17.27
2022-12-05T17:02:12.794Z,17.64
2022-12-05T17:03:44.307Z,17.83
2022-12-05T17:05:16.159Z,17.97
2022-12-05T17:06:47.458Z,18.59
2022-12-05T17:08:18.744Z,18.65
2022-12-05T17:11:46.777Z,17.74
2022-12-05T17:13:18.288Z,17.10
2022-12-05T17:14:49.763Z,16.99
2022-12-05T17:16:21.256Z,15.96
2022-12-05T17:17:52.873Z,16.18
2022-12-05T17:19:24.604Z,16.78
2022-12-05T17:20:56.295Z,18.09
2022-12-05T17:22:28.128Z,18.32
2022-12-05T17:24:00.160Z,17.74
2022-12-05T17:25:32.010Z,20.85
2022-12-05T17:27:22.637Z,22.34
2022-12-05T17:28:54.611Z,17.62
2022-12-05T17:30:26.121Z,18.32
2022-12-05T17:32:40.061Z,17.51
2022-12-05T17:34:16.835Z,16.08
2022-12-05T17:35:48.489Z,15.07
2022-12-05T17:37:21.233Z,15.16
2022-12-05T17:38:53.016Z,15.18
2022-12-05T17:40:24.553Z,14.77
2022-12-05T17:41:56.258Z,14.36
2022-12-05T17:43:27.664Z,14.63
2022-12-05T17:44:59.424Z,15.09
2022-12-05T17:46:30.939Z,15.04
2022-12-05T17:48:02.571Z,13.94
2022-12-05T17:49:53.708Z,13.98
2022-12-05T17:51:25.119Z,14.14
2022-12-05T17:52:56.764Z,14.68
2022-12-05T17:54:28.336Z,14.14
2022-12-05T17:55:59.969Z,14.34
2022-12-05T17:57:31.418Z,14.22
2022-12-05T17:59:07.149Z,14.20
2022-12-05T18:01:09.777Z,13.99
2022-12-05T18:02:59.807Z,14.21
2022-12-05T18:04:59.156Z,13.73
2022-12-05T18:06:37.221Z,13.49
2022-12-05T18:08:19.205Z,13.72
2022-12-05T18:09:51.074Z,13.48
2022-12-05T18:11:22.612Z,12.41
2022-12-05T18:13:14.984Z,12.52
2022-12-05T18:14:46.892Z,12.52
2022-12-05T18:16:18.779Z,12.53
2022-12-05T18:17:50.371Z,11.94
2022-12-05T18:19:23.331Z,11.09
2022-12-05T18:21:07.738Z,11.19
2022-12-05T18:22:39.422Z,11.79
2022-12-05T18:24:10.623Z,12.16
2022-12-05T18:25:42.105Z,11.62
2022-12-05T18:27:29.867Z,11.21
2022-12-05T18:29:11.469Z,11.21
2022-12-05T18:31:04.162Z,11.76
2022-12-05T18:32:36.030Z,12.50
2022-12-05T18:34:07.569Z,12.35
2022-12-05T18:35:38.908Z,13.32
2022-12-05T18:37:10.622Z,13.53
2022-12-05T18:38:42.324Z,13.86
2022-12-05T18:40:13.697Z,14.81
2022-12-05T18:41:45.360Z,14.51
2022-12-05T18:43:16.986Z,17.40
2022-12-05T18:44:48.989Z,15.34
2022-12-05T18:46:30.737Z,14.68
2022-12-05T18:48:37.723Z,16.82
2022-12-05T18:50:30.132Z,14.56
2022-12-05T18:52:01.812Z,14.58
2022-12-05T18:53:33.558Z,14.01
2022-12-05T18:55:17.138Z,15.64
2022-12-05T18:57:13.305Z,13.06
2022-12-05T18:58:54.784Z,12.83
2022-12-05T19:00:35.492Z,12.42
2022-12-05T19:02:06.947Z,11.98
2022-12-05T19:03:43.480Z,11.74
2022-12-05T19:05:25.820Z,11.58
2022-12-05T19:06:58.198Z,11.25
2022-12-05T19:08:30.404Z,11.75
2022-12-05T19:10:02.490Z,11.09
2022-12-05T19:11:34.422Z,11.15
2022-12-05T19:13:06.346Z,11.40
2022-12-05T19:14:38.281Z,11.44
2022-12-05T19:16:17.321Z,12.66
2022-12-05T19:18:47.786Z,12.69
2022-12-05T19:20:30.620Z,12.94
2022-12-05T19:22:02.467Z,13.41
2022-12-05T19:23:33.930Z,12.96
2022-12-05T19:27:18.747Z,13.05
2022-12-05T19:28:50.155Z,13.01
2022-12-05T19:30:51.271Z,13.80
2022-12-05T19:32:38.500Z,14.94
2022-12-05T19:34:12.222Z,14.09
2022-12-05T19:35:43.936Z,13.68
2022-12-05T19:37:15.664Z,13.33
2022-12-05T19:38:47.269Z,13.66
2022-12-05T19:40:23.842Z,12.52
2022-12-05T19:41:55.168Z,12.81
2022-12-05T19:43:26.726Z,36.87
2022-12-05T19:45:19.332Z,17.24
2022-12-05T19:47:19.590Z,13.59
2022-12-05T19:48:51.168Z,13.61
2022-12-05T19:50:22.778Z,13.48
2022-12-05T19:51:54.547Z,13.75
2022-12-05T19:53:36.615Z,13.74
2022-12-05T19:55:08.270Z,12.90
2022-12-05T19:57:06.380Z,13.75
2022-12-05T19:59:07.781Z,13.39
2022-12-05T20:00:39.645Z,12.74
2022-12-05T20:02:11.889Z,12.85